Time;durP1;ratioP1;P1;durP2;ratioP2;P2;SDS_P1;SDS_P2;PMS_P1;PMS_P2;Temp;Humidity;BMP_temperature;BMP_pressure;BME280_temperature;BME280_humidity;BME280_pressure;Samples;Min_cycle;Max_cycle;Signal;HPM_P1;HPM_P2
2020/12/08 00:01:31;;;;;;;6.87;6.10;;;7.50;99.90;;;;;;4978586;28;20592;-68
2020/12/08 00:03:56;;;;;;;8.13;5.90;;;7.60;1.00;;;;;;4976791;28;20196;-68
2020/12/08 00:06:22;;;;;;;6.67;5.97;;;7.50;1.00;;;;;;4978414;28;20195;-68
2020/12/08 00:08:47;;;;;;;6.67;5.97;;;7.40;1.00;;;;;;4978364;28;20187;-68
2020/12/08 00:11:16;;;;;;;6.43;5.70;;;7.40;99.90;;;;;;4978008;28;20576;-68
2020/12/08 00:13:43;;;;;;;6.45;5.85;;;7.50;99.90;;;;;;4977836;28;20217;-64
2020/12/08 00:16:08;;;;;;;6.10;5.50;;;7.60;99.90;;;;;;4978165;28;20519;-64
2020/12/08 00:18:34;;;;;;;6.20;5.23;;;7.30;1.00;;;;;;4978084;28;20184;-64
2020/12/08 00:20:59;;;;;;;5.97;4.97;;;7.20;1.00;;;;;;4978169;28;20228;-64
2020/12/08 00:23:25;;;;;;;7.37;5.50;;;7.10;99.90;;;;;;4977735;28;20188;-67
2020/12/08 00:25:50;;;;;;;6.37;5.77;;;7.20;99.90;;;;;;4978073;28;20179;-67
2020/12/08 00:28:16;;;;;;;6.93;6.23;;;6.90;1.00;;;;;;4977919;28;20184;-67
2020/12/08 00:30:41;;;;;;;8.13;6.50;;;6.90;99.90;;;;;;4976856;28;20195;-67
2020/12/08 00:33:07;;;;;;;7.07;6.37;;;7.00;99.90;;;;;;4977224;28;20649;-67
2020/12/08 00:35:33;;;;;;;7.53;6.67;;;7.20;4.70;;;;;;4977849;28;20210;-67
2020/12/08 00:37:58;;;;;;;7.07;5.90;;;7.20;99.90;;;;;;4977872;28;20516;-67
2020/12/08 00:40:24;;;;;;;7.67;6.80;;;7.10;99.90;;;;;;4977790;28;20184;-67
2020/12/08 00:42:49;;;;;;;6.43;5.43;;;7.00;1.00;;;;;;4977791;28;20279;-67
2020/12/08 00:45:14;;;;;;;6.87;6.20;;;6.80;1.00;;;;;;4977267;28;20183;-67
2020/12/08 00:47:40;;;;;;;9.87;7.27;;;6.80;99.90;;;;;;4977509;28;20184;-67
2020/12/08 00:50:07;;;;;;;8.00;6.40;;;6.90;99.90;;;;;;4977739;28;20196;-68
2020/12/08 00:52:32;;;;;;;9.63;6.07;;;6.90;99.90;;;;;;4977385;28;20636;-67
2020/12/08 00:54:58;;;;;;;8.53;7.17;;;6.90;99.90;;;;;;4976615;28;20187;-67
2020/12/08 00:57:23;;;;;;;7.30;6.37;;;6.80;99.90;;;;;;4977527;28;20592;-67
2020/12/08 00:59:49;;;;;;;9.33;7.53;;;6.60;99.90;;;;;;4977319;28;20204;-67
2020/12/08 01:02:16;;;;;;;6.83;5.93;;;6.70;1.00;;;;;;4977470;28;20188;-67
2020/12/08 01:04:42;;;;;;;7.80;6.20;;;6.60;99.90;;;;;;4976419;28;20188;-67
2020/12/08 01:07:09;;;;;;;9.80;8.20;;;6.70;1.00;;;;;;4977560;28;20602;-67
2020/12/08 01:09:35;;;;;;;8.02;6.35;;;6.50;1.00;;;;;;4977112;28;20192;-67
2020/12/08 01:12:00;;;;;;;6.25;5.65;;;6.50;1.00;;;;;;4976349;28;20184;-64
2020/12/08 01:14:26;;;;;;;7.97;6.40;;;6.60;99.90;;;;;;4976781;28;20658;-64
2020/12/08 01:16:51;;;;;;;7.23;6.10;;;6.50;19.50;;;;;;4976783;28;20181;-67
2020/12/08 01:19:17;;;;;;;7.13;6.10;;;6.60;99.90;;;;;;4976994;28;20180;-64
2020/12/08 01:21:43;;;;;;;7.97;6.32;;;6.40;99.90;;;;;;4976988;28;20192;-64
2020/12/08 01:24:08;;;;;;;8.80;7.93;;;6.50;99.90;;;;;;4976926;28;20199;-64
2020/12/08 01:26:34;;;;;;;14.07;11.97;;;6.70;99.90;;;;;;4977024;28;20646;-64
2020/12/08 01:28:59;;;;;;;21.67;15.03;;;6.60;1.00;;;;;;4976943;28;20701;-67
2020/12/08 01:31:30;;;;;;;8.90;7.27;;;6.60;1.00;;;;;;4976751;28;20188;-64
2020/12/08 01:33:56;;;;;;;7.60;6.85;;;6.50;1.00;;;;;;4976741;28;20232;-64
2020/12/08 01:36:21;;;;;;;6.77;6.07;;;6.40;99.90;;;;;;4976783;28;20262;-64
2020/12/08 01:38:47;;;;;;;9.10;6.10;;;6.50;99.90;;;;;;4976757;28;20176;-67
2020/12/08 01:41:12;;;;;;;8.43;7.37;;;6.40;99.90;;;;;;4975850;28;20582;-63
2020/12/08 01:43:48;;;;;;;7.73;6.93;;;6.20;99.90;;;;;;4976389;28;20176;-66
2020/12/08 01:46:20;;;;;;;9.45;7.28;;;6.20;1.00;;;;;;4976716;28;20275;-64
2020/12/08 01:48:49;;;;;;;8.95;6.65;;;6.30;99.90;;;;;;4976393;28;20219;-64
2020/12/08 01:51:16;;;;;;;7.50;6.65;;;6.20;1.00;;;;;;4975270;28;20250;-66
2020/12/08 01:53:42;;;;;;;9.90;7.03;;;6.30;1.00;;;;;;4976123;28;20211;-67
2020/12/08 01:56:09;;;;;;;8.70;7.10;;;6.20;1.00;;;;;;4975264;28;20456;-64
2020/12/08 01:58:34;;;;;;;7.50;6.70;;;6.10;1.00;;;;;;4976109;28;20200;-67
2020/12/08 02:01:00;;;;;;;6.77;6.07;;;6.30;1.00;;;;;;4976244;28;20486;-66
2020/12/08 02:03:26;;;;;;;7.63;6.83;;;6.40;1.00;;;;;;4975471;28;20527;-64
2020/12/08 02:05:53;;;;;;;7.95;6.72;;;6.40;99.90;;;;;;4975819;28;20343;-67
2020/12/08 02:08:29;;;;;;;8.93;8.02;;;6.40;97.10;;;;;;4974916;28;20214;-64
2020/12/08 02:10:56;;;;;;;7.40;6.55;;;6.20;1.00;;;;;;4976041;28;20202;-65
2020/12/08 02:13:22;;;;;;;7.95;7.13;;;6.10;99.90;;;;;;4976156;28;20216;-67
2020/12/08 02:15:48;;;;;;;8.20;7.37;;;6.10;99.90;;;;;;4976168;28;20564;-65
2020/12/08 02:18:13;;;;;;;8.57;7.10;;;6.10;1.00;;;;;;4976071;28;20507;-64
2020/12/08 02:20:39;;;;;;;7.97;7.10;;;6.10;99.90;;;;;;4976521;28;20475;-67
2020/12/08 02:23:05;;;;;;;8.82;7.13;;;6.20;1.00;;;;;;4975003;28;20198;-66
2020/12/08 02:25:30;;;;;;;7.73;6.70;;;6.30;99.90;;;;;;4976159;28;20691;-64
2020/12/08 02:27:56;;;;;;;6.97;6.37;;;6.30;99.90;;;;;;4976050;28;20266;-64
2020/12/08 02:30:21;;;;;;;7.47;6.77;;;6.40;99.90;;;;;;4976202;28;20184;-66
2020/12/08 02:32:47;;;;;;;8.90;7.57;;;6.40;1.00;;;;;;4976022;28;20187;-67
2020/12/08 02:35:12;;;;;;;9.07;7.27;;;6.50;1.00;;;;;;4975874;28;20255;-67
2020/12/08 02:37:38;;;;;;;8.83;7.50;;;6.50;1.00;;;;;;4976180;28;20192;-64
2020/12/08 02:40:05;;;;;;;8.13;6.57;;;6.60;1.00;;;;;;4976047;28;20180;-64
2020/12/08 02:42:30;;;;;;;8.60;6.47;;;6.60;99.90;;;;;;4975783;28;20180;-64
2020/12/08 02:44:56;;;;;;;7.50;6.67;;;6.70;99.90;;;;;;4975611;28;20481;-64
2020/12/08 02:47:22;;;;;;;8.00;7.07;;;6.50;99.90;;;;;;4976499;28;20206;-64
2020/12/08 02:49:47;;;;;;;9.17;6.40;;;6.40;99.90;;;;;;4976085;28;20949;-63
2020/12/08 02:52:13;;;;;;;7.17;6.37;;;6.20;1.00;;;;;;4975900;28;20188;-64
2020/12/08 02:54:38;;;;;;;7.67;6.47;;;6.40;1.00;;;;;;4975413;28;20541;-64
2020/12/08 02:57:07;;;;;;;8.33;7.30;;;6.40;99.90;;;;;;4975678;28;20597;-64
2020/12/08 02:59:35;;;;;;;6.65;6.05;;;6.60;1.00;;;;;;4975526;28;20200;-63
2020/12/08 03:02:01;;;;;;;7.55;6.70;;;6.60;99.90;;;;;;4974451;28;20180;-63
2020/12/08 03:04:27;;;;;;;7.18;6.47;;;6.60;85.00;;;;;;4975301;28;20176;-64
2020/12/08 03:06:53;;;;;;;10.30;6.47;;;6.60;1.00;;;;;;4975600;28;20184;-64
2020/12/08 03:09:18;;;;;;;7.20;6.50;;;6.80;1.00;;;;;;4975685;28;20929;-64
2020/12/08 03:11:44;;;;;;;7.40;6.60;;;6.80;94.90;;;;;;4975373;28;20207;-64
2020/12/08 03:14:09;;;;;;;7.53;5.50;;;6.80;1.00;;;;;;4973917;28;20322;-63
2020/12/08 03:16:35;;;;;;;7.60;6.80;;;6.60;99.90;;;;;;4974811;28;20273;-64
2020/12/08 03:19:01;;;;;;;6.30;5.70;;;6.70;90.20;;;;;;4975266;28;20187;-64
2020/12/08 03:21:27;;;;;;;7.40;6.57;;;6.60;1.00;;;;;;4974187;28;20211;-64
2020/12/08 03:23:52;;;;;;;7.37;6.47;;;6.30;99.90;;;;;;4974826;28;20176;-64
2020/12/08 03:26:22;;;;;;;6.90;6.20;;;6.30;81.00;;;;;;4975269;28;20482;-63
2020/12/08 03:28:48;;;;;;;7.00;6.40;;;6.30;99.90;;;;;;4975131;28;20184;-63
2020/12/08 03:31:14;;;;;;;7.40;6.72;;;6.20;1.00;;;;;;4975138;28;20635;-63
2020/12/08 03:33:39;;;;;;;10.40;6.43;;;6.30;99.90;;;;;;4974900;28;20215;-64
2020/12/08 03:36:10;;;;;;;7.10;5.37;;;6.50;1.00;;;;;;4973939;28;20495;-64
2020/12/08 03:38:36;;;;;;;8.25;7.03;;;6.40;68.50;;;;;;4975186;28;20184;-64
2020/12/08 03:41:01;;;;;;;7.10;6.40;;;6.40;99.90;;;;;;4975005;28;20263;-67
2020/12/08 03:43:27;;;;;;;7.90;7.10;;;6.60;1.00;;;;;;4974871;28;20243;-64
2020/12/08 03:45:53;;;;;;;8.40;6.37;;;6.50;1.00;;;;;;4975111;28;20180;-64
2020/12/08 03:48:18;;;;;;;8.50;7.60;;;6.70;36.70;;;;;;4975218;28;20192;-64
2020/12/08 03:50:44;;;;;;;9.00;7.03;;;6.70;1.00;;;;;;4973939;28;20439;-64
2020/12/08 03:53:09;;;;;;;7.90;7.10;;;6.70;1.00;;;;;;4973659;28;20208;-64
2020/12/08 03:55:35;;;;;;;7.50;6.67;;;6.50;1.00;;;;;;4975067;28;20191;-64
2020/12/08 03:58:00;;;;;;;8.83;6.77;;;6.60;1.00;;;;;;4974768;28;20202;-64
2020/12/08 04:00:26;;;;;;;9.53;7.20;;;6.50;1.00;;;;;;4973864;28;20274;-67
2020/12/08 04:02:51;;;;;;;7.87;6.97;;;6.60;99.90;;;;;;4974890;28;20188;-67
2020/12/08 04:05:17;;;;;;;8.03;7.00;;;6.70;99.90;;;;;;4974764;28;20173;-67
2020/12/08 04:07:43;;;;;;;9.60;7.57;;;6.70;1.00;;;;;;4974746;28;20606;-67
2020/12/08 04:10:08;;;;;;;7.93;7.13;;;6.70;99.90;;;;;;4973751;28;20286;-67
2020/12/08 04:12:34;;;;;;;8.63;7.83;;;6.50;99.90;;;;;;4974727;28;20298;-63
2020/12/08 04:14:59;;;;;;;7.63;6.40;;;6.40;1.00;;;;;;4974526;28;20212;-67
2020/12/08 04:17:25;;;;;;;8.20;7.30;;;6.20;99.90;;;;;;4974819;28;20267;-67
2020/12/08 04:19:50;;;;;;;8.30;7.43;;;6.20;99.90;;;;;;4974888;28;20183;-67
2020/12/08 04:22:15;;;;;;;8.10;7.23;;;6.10;1.00;;;;;;4974617;28;20216;-67
2020/12/08 04:24:41;;;;;;;7.30;6.60;;;6.20;44.70;;;;;;4974630;28;20263;-67
2020/12/08 04:27:07;;;;;;;8.80;7.70;;;6.20;1.00;;;;;;4973563;28;20195;-64
2020/12/08 04:29:32;;;;;;;7.53;6.83;;;6.30;99.90;;;;;;4976538;28;20207;-64
2020/12/08 04:31:58;;;;;;;8.90;8.00;;;6.40;1.00;;;;;;4978077;28;20520;-64
2020/12/08 04:34:23;;;;;;;7.73;6.93;;;6.50;1.00;;;;;;4977820;28;20212;-64
2020/12/08 04:36:49;;;;;;;8.50;7.60;;;6.50;1.00;;;;;;4976969;28;20184;-64
2020/12/08 04:39:14;;;;;;;8.13;7.33;;;6.40;99.90;;;;;;4977506;28;20184;-64
2020/12/08 04:41:40;;;;;;;8.00;7.10;;;6.30;1.00;;;;;;4977630;28;20184;-64
2020/12/08 04:44:05;;;;;;;8.83;7.63;;;6.40;1.00;;;;;;4977621;28;20250;-64
2020/12/08 04:46:31;;;;;;;8.13;7.37;;;6.40;1.00;;;;;;4977739;28;20536;-64
2020/12/08 04:48:58;;;;;;;7.32;6.57;;;6.30;1.00;;;;;;4977919;28;20184;-64
2020/12/08 04:51:24;;;;;;;9.13;8.23;;;6.30;1.00;;;;;;4977577;28;20183;-65
2020/12/08 04:53:53;;;;;;;10.63;7.33;;;6.20;1.00;;;;;;4977228;28;20219;-64
2020/12/08 04:56:18;;;;;;;8.65;7.75;;;6.10;99.90;;;;;;4977458;28;20218;-64
2020/12/08 04:58:44;;;;;;;9.17;7.73;;;6.20;99.90;;;;;;4977382;28;20254;-64
2020/12/08 05:01:23;;;;;;;10.13;8.00;;;6.30;99.90;;;;;;4977580;28;20187;-64
2020/12/08 05:03:59;;;;;;;10.10;8.10;;;6.10;99.90;;;;;;4977191;28;20179;-65
2020/12/08 05:06:25;;;;;;;9.85;8.32;;;6.30;99.90;;;;;;4977526;28;20188;-64
2020/12/08 05:09:07;;;;;;;8.70;7.80;;;6.30;99.90;;;;;;4977357;28;20815;-64
2020/12/08 05:11:33;;;;;;;10.95;8.55;;;6.50;99.90;;;;;;4976763;28;20195;-64
2020/12/08 05:14:06;;;;;;;9.63;7.65;;;6.60;99.90;;;;;;4976609;28;20278;-64
2020/12/08 05:16:32;;;;;;;9.57;8.25;;;6.60;99.90;;;;;;4976965;28;20497;-64
2020/12/08 05:19:09;;;;;;;11.57;8.32;;;6.70;1.00;;;;;;4976780;28;20176;-64
2020/12/08 05:21:51;;;;;;;8.50;7.60;;;6.60;1.00;;;;;;4976756;28;20233;-65
2020/12/08 05:24:26;;;;;;;10.77;8.50;;;6.70;1.00;;;;;;4976431;28;20612;-64
2020/12/08 05:26:56;;;;;;;11.05;9.45;;;6.50;1.00;;;;;;4975747;28;20214;-64
2020/12/08 05:29:22;;;;;;;10.02;8.57;;;6.60;1.00;;;;;;4975665;28;20287;-64
2020/12/08 05:31:50;;;;;;;11.20;8.53;;;6.30;1.00;;;;;;4976558;28;20215;-64
2020/12/08 05:34:17;;;;;;;9.43;8.13;;;6.10;99.90;;;;;;4976224;28;20582;-64
2020/12/08 05:36:47;;;;;;;10.48;8.55;;;6.10;1.00;;;;;;4976321;28;20181;-64
2020/12/08 05:39:17;;;;;;;9.15;7.85;;;6.10;1.00;;;;;;4976239;28;20176;-64
2020/12/08 05:41:45;;;;;;;10.65;8.07;;;6.20;1.00;;;;;;4976177;28;20236;-65
2020/12/08 05:44:16;;;;;;;11.85;9.95;;;6.20;1.00;;;;;;4976543;28;20243;-64
2020/12/08 05:46:43;;;;;;;10.85;8.63;;;6.20;1.00;;;;;;4976107;28;20516;-64
2020/12/08 05:49:15;;;;;;;11.15;8.70;;;6.30;1.00;;;;;;4976012;28;20572;-64
2020/12/08 05:51:42;;;;;;;11.48;9.15;;;6.30;1.00;;;;;;4975784;28;20640;-64
2020/12/08 05:54:16;;;;;;;13.48;9.95;;;6.00;1.00;;;;;;4975835;28;20219;-64
2020/12/08 05:56:42;;;;;;;11.88;8.52;;;5.90;1.00;;;;;;4976007;28;20176;-64
2020/12/08 05:59:08;;;;;;;11.97;9.63;;;5.90;1.00;;;;;;4975876;28;20527;-64
2020/12/08 06:01:33;;;;;;;12.57;9.67;;;5.90;63.20;;;;;;4975753;28;20246;-64
2020/12/08 06:03:59;;;;;;;11.83;10.03;;;6.00;75.80;;;;;;4975638;28;20188;-64
2020/12/08 06:06:24;;;;;;;15.17;9.50;;;6.00;97.10;;;;;;4975738;28;20207;-64
2020/12/08 06:08:50;;;;;;;14.20;11.23;;;6.00;99.90;;;;;;4975896;28;20191;-65
2020/12/08 06:11:16;;;;;;;12.80;10.20;;;6.10;63.60;;;;;;4974796;28;20187;-64
2020/12/08 06:13:48;;;;;;;13.15;9.82;;;6.20;64.40;;;;;;4975352;28;20204;-65
2020/12/08 06:16:19;;;;;;;12.65;10.05;;;6.20;47.60;;;;;;4975542;28;20188;-64
2020/12/08 06:18:45;;;;;;;12.68;10.45;;;6.30;36.20;;;;;;4975634;28;20270;-64
2020/12/08 06:21:22;;;;;;;14.50;10.57;;;6.30;1.00;;;;;;4975543;28;20226;-64
2020/12/08 06:23:50;;;;;;;14.77;9.75;;;6.30;1.00;;;;;;4975759;28;20485;-64
2020/12/08 06:26:26;;;;;;;12.13;9.60;;;6.30;1.00;;;;;;4975838;28;20180;-64
2020/12/08 06:28:52;;;;;;;12.20;9.82;;;6.40;1.00;;;;;;4975745;28;20199;-64
2020/12/08 06:31:18;;;;;;;13.55;9.13;;;6.40;1.00;;;;;;4975471;28;20186;-64
2020/12/08 06:33:52;;;;;;;12.80;10.50;;;6.20;1.00;;;;;;4975172;28;20261;-64
2020/12/08 06:36:20;;;;;;;15.75;11.73;;;6.20;1.00;;;;;;4975114;28;20534;-64
2020/12/08 06:39:07;;;;;;;14.32;11.40;;;6.30;1.00;;;;;;4975225;28;20256;-64
2020/12/08 06:41:36;;;;;;;14.55;10.43;;;6.20;1.00;;;;;;4975962;28;20255;-64
2020/12/08 06:44:04;;;;;;;13.02;9.88;;;6.10;1.00;;;;;;4974954;28;20191;-64
2020/12/08 06:46:29;;;;;;;13.88;10.60;;;5.80;1.00;;;;;;4975267;28;20188;-64
2020/12/08 06:49:03;;;;;;;14.17;9.87;;;5.70;1.00;;;;;;4973915;28;20192;-64
2020/12/08 06:51:29;;;;;;;14.18;10.10;;;5.70;99.90;;;;;;4974460;28;20203;-64
2020/12/08 06:53:55;;;;;;;14.47;9.63;;;5.70;99.90;;;;;;4974540;28;20591;-64
2020/12/08 06:56:31;;;;;;;14.90;10.60;;;5.70;99.90;;;;;;4974237;28;20223;-64
2020/12/08 06:58:57;;;;;;;14.80;10.00;;;5.70;99.90;;;;;;4975314;28;20275;-63
2020/12/08 07:01:23;;;;;;;12.97;10.63;;;5.70;99.90;;;;;;4974902;28;20271;-63
2020/12/08 07:03:49;;;;;;;14.40;11.57;;;5.60;99.90;;;;;;4974627;28;20597;-63
2020/12/08 07:06:15;;;;;;;15.82;10.98;;;5.30;99.90;;;;;;4973702;28;20714;-63
2020/12/08 07:08:48;;;;;;;16.10;11.93;;;5.30;99.90;;;;;;4974634;28;20231;-64
2020/12/08 07:11:20;;;;;;;17.33;11.15;;;5.30;99.90;;;;;;4974682;28;20423;-64
2020/12/08 07:14:12;;;;;;;13.75;9.23;;;5.30;99.90;;;;;;4974156;28;20214;-63
2020/12/08 07:16:40;;;;;;;13.95;10.40;;;5.40;99.90;;;;;;4972733;28;20188;-64
2020/12/08 07:19:07;;;;;;;15.18;11.13;;;5.50;99.90;;;;;;4974772;28;20176;-64
2020/12/08 07:21:33;;;;;;;12.77;9.55;;;5.60;99.90;;;;;;4974809;28;20586;-65
2020/12/08 07:23:59;;;;;;;14.82;10.65;;;5.60;99.90;;;;;;4974323;28;20188;-63
2020/12/08 07:26:27;;;;;;;12.40;10.00;;;5.50;99.90;;;;;;4974633;28;20180;-64
2020/12/08 07:28:54;;;;;;;16.35;11.73;;;5.60;99.90;;;;;;4974537;28;20191;-64
2020/12/08 07:31:25;;;;;;;14.93;10.50;;;5.60;99.90;;;;;;4974403;28;20195;-64
2020/12/08 07:33:52;;;;;;;12.95;9.82;;;5.60;99.90;;;;;;4974121;28;20246;-64
2020/12/08 07:36:33;;;;;;;16.05;12.05;;;5.50;99.90;;;;;;4974518;28;20184;-64
2020/12/08 07:39:02;;;;;;;13.25;10.25;;;5.50;99.90;;;;;;4974500;28;20204;-64
2020/12/08 07:41:29;;;;;;;18.33;13.40;;;5.80;99.90;;;;;;4974279;28;20594;-64
2020/12/08 07:43:56;;;;;;;15.50;11.70;;;6.00;99.90;;;;;;4974085;28;20192;-64
2020/12/08 07:46:26;;;;;;;15.05;11.05;;;6.00;99.90;;;;;;4974425;28;20176;-64
2020/12/08 07:49:08;;;;;;;12.60;10.23;;;6.00;32.60;;;;;;4974403;28;20342;-64
2020/12/08 07:51:36;;;;;;;15.65;12.35;;;6.00;1.00;;;;;;4974373;28;20247;-64
2020/12/08 07:54:04;;;;;;;14.27;11.82;;;6.30;1.00;;;;;;4973831;28;20268;-64
2020/12/08 07:56:31;;;;;;;14.82;10.82;;;6.10;1.00;;;;;;4974910;28;20187;-64
2020/12/08 07:58:58;;;;;;;15.38;11.38;;;6.00;1.00;;;;;;4971958;28;20201;-64
2020/12/08 08:01:24;;;;;;;16.70;11.18;;;6.00;1.00;;;;;;4972113;28;20180;-64
2020/12/08 08:03:50;;;;;;;14.32;10.60;;;6.00;1.00;;;;;;4975415;28;20188;-64
2020/12/08 08:06:18;;;;;;;14.23;10.93;;;5.90;1.00;;;;;;4977322;28;20517;-64
2020/12/08 08:08:48;;;;;;;13.88;10.38;;;5.90;1.00;;;;;;4977519;28;20246;-64
2020/12/08 08:11:15;;;;;;;13.30;11.27;;;6.00;1.00;;;;;;4978611;28;20467;-65
2020/12/08 08:13:40;;;;;;;11.45;10.25;;;6.10;1.00;;;;;;4978040;28;20250;-65
2020/12/08 08:16:10;;;;;;;14.70;10.70;;;6.30;1.00;;;;;;4977181;28;20591;-65
2020/12/08 08:18:37;;;;;;;12.88;10.05;;;6.30;99.90;;;;;;4978389;28;20263;-63
2020/12/08 08:21:03;;;;;;;15.20;10.38;;;6.20;33.40;;;;;;4978186;28;20223;-63
2020/12/08 08:23:30;;;;;;;13.57;11.90;;;6.30;1.00;;;;;;4978002;28;20623;-62
2020/12/08 08:25:56;;;;;;;12.57;9.38;;;6.20;1.00;;;;;;4979605;28;20279;-63
2020/12/08 08:28:21;;;;;;;13.10;10.43;;;6.10;1.00;;;;;;4977046;28;20275;-63
2020/12/08 08:30:47;;;;;;;13.43;10.67;;;6.30;1.00;;;;;;4976709;28;20475;-63
2020/12/08 08:33:12;;;;;;;13.40;11.10;;;6.10;1.00;;;;;;4977763;28;20215;-62
2020/12/08 08:35:38;;;;;;;12.77;9.67;;;5.90;1.00;;;;;;4976804;28;20183;-62
2020/12/08 08:38:04;;;;;;;14.50;11.23;;;5.80;1.00;;;;;;4977001;28;20591;-62
2020/12/08 08:40:29;;;;;;;12.53;10.47;;;5.90;99.90;;;;;;4977681;28;20270;-63
2020/12/08 08:42:55;;;;;;;15.60;11.97;;;5.90;99.90;;;;;;4977723;28;20737;-64
2020/12/08 08:45:23;;;;;;;15.80;12.10;;;5.80;99.90;;;;;;4977808;28;20180;-64
2020/12/08 08:47:49;;;;;;;12.77;10.85;;;6.10;1.00;;;;;;4977766;28;20265;-63
2020/12/08 08:50:15;;;;;;;13.23;11.10;;;6.20;99.90;;;;;;4976591;28;20552;-63
2020/12/08 08:52:40;;;;;;;15.00;10.83;;;6.30;90.20;;;;;;4976019;28;20190;-63
2020/12/08 08:55:09;;;;;;;14.53;10.97;;;6.40;64.90;;;;;;4977319;28;20218;-63
2020/12/08 08:57:35;;;;;;;14.15;10.50;;;6.30;99.90;;;;;;4977465;28;20267;-65
2020/12/08 09:00:00;;;;;;;33.10;20.50;;;6.60;99.90;;;;;;4977186;28;22098;-64
2020/12/08 09:02:26;;;;;;;62.70;35.20;;;6.50;99.90;;;;;;4976441;28;20179;-65
2020/12/08 09:04:52;;;;;;;32.70;20.60;;;6.30;1.00;;;;;;4977726;28;20216;-64
2020/12/08 09:07:17;;;;;;;18.63;13.97;;;6.50;99.90;;;;;;4976572;28;20271;-64
2020/12/08 09:09:43;;;;;;;24.77;18.67;;;6.80;1.00;;;;;;4975814;28;20188;-64
2020/12/08 09:12:08;;;;;;;15.20;10.60;;;6.80;1.00;;;;;;4977488;28;20188;-65
2020/12/08 09:14:34;;;;;;;15.40;12.37;;;6.60;1.00;;;;;;4975695;28;20204;-64
2020/12/08 09:17:00;;;;;;;27.13;19.30;;;6.50;11.70;;;;;;4976414;28;20326;-65
2020/12/08 09:19:25;;;;;;;19.10;13.73;;;6.60;1.00;;;;;;4977134;28;20263;-64
2020/12/08 09:21:53;;;;;;;14.57;11.50;;;6.40;1.00;;;;;;4976980;28;20184;-66
2020/12/08 09:24:19;;;;;;;25.67;17.50;;;6.70;99.90;;;;;;4978233;28;20266;-68
2020/12/08 09:26:45;;;;;;;15.25;11.50;;;6.80;1.00;;;;;;4976996;28;20551;-67
2020/12/08 09:29:11;;;;;;;13.60;11.00;;;6.80;99.90;;;;;;4976854;28;20620;-68
2020/12/08 09:31:43;;;;;;;17.70;13.10;;;6.80;99.90;;;;;;4976882;28;20614;-68
2020/12/08 09:34:08;;;;;;;15.10;11.32;;;6.80;99.90;;;;;;4976504;28;20200;-68
2020/12/08 09:36:34;;;;;;;12.83;10.73;;;6.90;99.90;;;;;;4977138;28;20191;-68
2020/12/08 09:39:01;;;;;;;14.30;12.35;;;6.80;1.00;;;;;;4977118;28;20183;-67
2020/12/08 09:41:26;;;;;;;16.67;13.38;;;6.90;1.60;;;;;;4977049;28;20203;-69
2020/12/08 09:43:52;;;;;;;14.70;11.90;;;7.10;1.00;;;;;;4977218;28;20626;-68
2020/12/08 09:46:18;;;;;;;17.67;13.47;;;6.90;99.90;;;;;;4980427;28;20184;-68
2020/12/08 09:48:43;;;;;;;20.73;14.90;;;6.90;1.00;;;;;;4980853;28;20955;-68
2020/12/08 09:51:09;;;;;;;16.63;11.40;;;6.80;1.00;;;;;;4977912;28;20191;-65
2020/12/08 09:53:34;;;;;;;15.10;10.80;;;6.80;99.90;;;;;;4976543;28;20238;-67
2020/12/08 09:56:00;;;;;;;16.27;12.90;;;6.70;1.00;;;;;;4978600;28;20184;-66
2020/12/08 09:58:26;;;;;;;16.43;12.23;;;6.60;1.00;;;;;;4976967;28;20195;-66
2020/12/08 10:00:51;;;;;;;17.03;11.73;;;6.70;99.90;;;;;;4975830;28;20520;-65
2020/12/08 10:03:17;;;;;;;14.20;10.23;;;6.80;1.00;;;;;;4975745;28;20683;-66
2020/12/08 10:05:42;;;;;;;15.27;11.57;;;6.80;1.00;;;;;;4975504;28;20194;-65
2020/12/08 10:08:08;;;;;;;14.17;11.67;;;6.80;1.00;;;;;;4975560;28;20592;-65
2020/12/08 10:10:33;;;;;;;14.10;11.47;;;6.80;1.00;;;;;;4975499;28;20641;-66
2020/12/08 10:13:00;;;;;;;13.93;10.53;;;6.80;1.00;;;;;;4975673;28;20208;-64
2020/12/08 10:15:26;;;;;;;15.48;11.40;;;6.70;1.00;;;;;;4975557;28;20215;-66
2020/12/08 10:17:52;;;;;;;15.05;11.23;;;6.60;35.90;;;;;;4976877;28;20597;-68
2020/12/08 10:20:17;;;;;;;17.00;11.97;;;6.50;99.90;;;;;;4977010;28;20183;-64
2020/12/08 10:22:43;;;;;;;15.90;12.30;;;6.50;99.90;;;;;;4975667;28;20222;-66
2020/12/08 10:25:08;;;;;;;13.60;11.10;;;6.60;1.00;;;;;;4975454;28;20198;-66
2020/12/08 10:27:34;;;;;;;14.67;11.23;;;6.90;1.00;;;;;;4975635;28;20191;-66
2020/12/08 10:29:59;;;;;;;15.73;12.67;;;7.10;1.00;;;;;;4977286;28;20199;-68
2020/12/08 10:32:25;;;;;;;14.90;11.53;;;7.30;99.90;;;;;;4975431;28;20184;-66
2020/12/08 10:34:50;;;;;;;18.50;12.60;;;7.40;1.00;;;;;;4974041;28;20234;-66
2020/12/08 10:37:19;;;;;;;16.40;12.57;;;7.40;99.90;;;;;;4975390;28;20195;-64
2020/12/08 10:39:44;;;;;;;14.85;10.95;;;7.10;99.90;;;;;;4974585;28;20180;-65
2020/12/08 10:42:10;;;;;;;15.30;11.47;;;7.10;2.50;;;;;;4975971;28;20176;-66
2020/12/08 10:44:36;;;;;;;16.00;12.43;;;6.90;1.00;;;;;;4974471;28;20279;-66
2020/12/08 10:47:01;;;;;;;15.80;11.37;;;7.00;99.90;;;;;;4975945;28;20215;-66
2020/12/08 10:49:27;;;;;;;16.70;12.47;;;7.00;6.90;;;;;;4993153;28;20179;-64
2020/12/08 10:51:53;;;;;;;16.10;12.07;;;7.10;99.90;;;;;;4993602;28;20186;-66
2020/12/08 10:54:20;;;;;;;16.67;12.00;;;6.90;99.90;;;;;;4994164;28;20211;-67
2020/12/08 10:56:50;;;;;;;16.38;12.43;;;6.80;1.00;;;;;;4974604;28;20250;-66
2020/12/08 10:59:16;;;;;;;12.68;10.95;;;6.80;99.90;;;;;;4974352;28;20202;-65
2020/12/08 11:01:42;;;;;;;18.70;12.73;;;6.60;99.90;;;;;;4976922;28;20211;-66
2020/12/08 11:04:08;;;;;;;16.00;11.33;;;6.80;1.00;;;;;;4977001;28;20427;-67
2020/12/08 11:06:34;;;;;;;15.57;12.10;;;6.70;1.00;;;;;;4977151;28;20211;-65
2020/12/08 11:09:03;;;;;;;15.73;11.90;;;6.80;1.00;;;;;;4971584;28;20214;-65
2020/12/08 11:11:31;;;;;;;18.25;12.65;;;6.90;99.90;;;;;;4977068;28;20517;-65
2020/12/08 11:13:57;;;;;;;16.83;12.30;;;6.90;1.00;;;;;;4975936;28;20278;-65
2020/12/08 11:16:24;;;;;;;17.80;12.40;;;7.10;1.00;;;;;;4977644;28;20172;-65
2020/12/08 11:18:50;;;;;;;20.20;15.05;;;7.30;1.00;;;;;;4979272;28;20188;-65
2020/12/08 11:21:42;;;;;;;18.17;13.43;;;7.40;99.90;;;;;;4975916;28;20184;-65
2020/12/08 11:24:08;;;;;;;25.70;16.67;;;7.40;99.90;;;;;;4973844;28;20214;-67
2020/12/08 11:26:34;;;;;;;33.27;18.40;;;7.60;99.90;;;;;;4978808;28;20188;-68
2020/12/08 11:29:00;;;;;;;17.63;13.95;;;7.60;1.00;;;;;;4974989;28;20254;-65
2020/12/08 11:31:26;;;;;;;19.52;14.95;;;7.60;1.00;;;;;;4975867;28;20195;-65
2020/12/08 11:33:52;;;;;;;19.23;13.63;;;7.50;1.00;;;;;;4979466;28;20220;-67
2020/12/08 11:36:17;;;;;;;21.10;13.77;;;7.70;99.90;;;;;;4954687;28;20211;-66
2020/12/08 11:38:43;;;;;;;19.93;13.80;;;7.90;99.90;;;;;;4968193;28;20239;-66
2020/12/08 11:41:11;;;;;;;17.55;14.07;;;7.90;1.00;;;;;;4979339;28;20503;-66
2020/12/08 11:43:37;;;;;;;18.95;14.10;;;7.80;99.90;;;;;;4976994;28;20184;-66
2020/12/08 11:46:03;;;;;;;18.93;13.40;;;7.40;99.90;;;;;;4978658;28;20210;-66
2020/12/08 11:48:29;;;;;;;16.30;13.75;;;7.50;1.00;;;;;;4978179;28;20583;-66
2020/12/08 11:50:55;;;;;;;20.83;13.67;;;7.60;99.90;;;;;;4976794;28;20278;-64
2020/12/08 11:53:21;;;;;;;16.23;12.82;;;7.60;1.00;;;;;;4977541;28;20204;-65
2020/12/08 11:55:48;;;;;;;17.17;12.85;;;7.70;99.90;;;;;;4977983;28;20260;-65
2020/12/08 11:58:14;;;;;;;19.00;13.55;;;8.00;1.00;;;;;;4978001;28;20533;-64
2020/12/08 12:00:39;;;;;;;19.00;14.60;;;8.10;99.90;;;;;;4978427;28;20222;-65
2020/12/08 12:03:05;;;;;;;44.63;26.73;;;8.40;1.00;;;;;;4981140;28;20191;-63
2020/12/08 12:05:31;;;;;;;20.40;15.00;;;8.50;1.00;;;;;;4988836;28;20214;-62
2020/12/08 12:07:57;;;;;;;21.53;15.60;;;8.30;1.00;;;;;;4987001;28;20187;-62
2020/12/08 12:10:22;;;;;;;17.50;13.37;;;8.50;1.00;;;;;;4988087;28;20430;-61
2020/12/08 12:12:48;;;;;;;16.90;13.40;;;8.60;99.90;;;;;;4983606;28;20184;-63
2020/12/08 12:15:13;;;;;;;16.00;13.53;;;8.40;99.90;;;;;;4966749;28;20225;-61
2020/12/08 12:17:39;;;;;;;17.63;14.17;;;8.40;99.90;;;;;;4958407;29;20184;-63
2020/12/08 12:20:07;;;;;;;22.53;14.87;;;8.50;99.90;;;;;;4977748;28;20335;-63
2020/12/08 12:22:33;;;;;;;19.77;14.93;;;8.50;99.90;;;;;;4978034;28;20243;-64
2020/12/08 12:24:58;;;;;;;23.55;15.85;;;8.50;99.90;;;;;;4977441;28;20648;-63
2020/12/08 12:27:24;;;;;;;18.33;13.37;;;8.40;99.90;;;;;;4977736;28;20189;-63
2020/12/08 12:29:49;;;;;;;19.63;14.00;;;8.30;99.90;;;;;;4977601;28;20628;-63
2020/12/08 12:32:16;;;;;;;19.40;14.73;;;8.50;1.00;;;;;;4976186;28;20191;-62
2020/12/08 12:34:41;;;;;;;17.73;13.23;;;8.40;1.00;;;;;;4977011;28;20719;-62
2020/12/08 12:37:07;;;;;;;18.67;14.80;;;8.60;99.90;;;;;;4977222;28;20321;-62
2020/12/08 12:39:32;;;;;;;19.70;15.37;;;8.40;1.00;;;;;;4976727;28;20215;-64
2020/12/08 12:41:58;;;;;;;17.03;12.73;;;8.10;1.00;;;;;;4976195;28;20521;-62
2020/12/08 12:44:23;;;;;;;18.03;14.30;;;7.90;99.90;;;;;;4976888;28;20539;-62
2020/12/08 12:46:53;;;;;;;18.63;13.40;;;7.70;1.00;;;;;;4977385;28;20263;-64
2020/12/08 12:49:19;;;;;;;18.45;14.85;;;7.30;1.00;;;;;;4976140;28;20192;-63